sensor_id;sensor_type;location;lat;lon;timestamp;temperature;humidity
46438;DHT22;32137;48.728;9.142;2023-07-29T00:01:43;17.30;99.90
46438;DHT22;32137;48.728;9.142;2023-07-29T00:04:09;17.30;99.90
46438;DHT22;32137;48.728;9.142;2023-07-29T00:06:34;17.30;99.90
46438;DHT22;32137;48.728;9.142;2023-07-29T00:09:00;17.30;99.90
46438;DHT22;32137;48.728;9.142;2023-07-29T00:11:25;17.30;99.90
46438;DHT22;32137;48.728;9.142;2023-07-29T00:13:51;17.30;99.90
46438;DHT22;32137;48.728;9.142;2023-07-29T00:16:18;17.30;99.90
46438;DHT22;32137;48.728;9.142;2023-07-29T00:18:43;17.30;99.90
46438;DHT22;32137;48.728;9.142;2023-07-29T00:21:09;17.30;99.90
46438;DHT22;32137;48.728;9.142;2023-07-29T00:23:34;17.30;99.90
46438;DHT22;32137;48.728;9.142;2023-07-29T00:26:00;17.30;99.90
46438;DHT22;32137;48.728;9.142;2023-07-29T00:28:25;17.40;99.90
46438;DHT22;32137;48.728;9.142;2023-07-29T00:30:51;17.40;99.90
46438;DHT22;32137;48.728;9.142;2023-07-29T00:33:16;17.30;99.90
46438;DHT22;32137;48.728;9.142;2023-07-29T00:35:42;17.30;99.90
46438;DHT22;32137;48.728;9.142;2023-07-29T00:38:07;17.30;99.90
46438;DHT22;32137;48.728;9.142;2023-07-29T00:40:34;17.30;99.90
46438;DHT22;32137;48.728;9.142;2023-07-29T00:43:00;17.30;99.90
46438;DHT22;32137;48.728;9.142;2023-07-29T00:45:26;17.30;99.90
46438;DHT22;32137;48.728;9.142;2023-07-29T00:47:52;17.30;99.90
46438;DHT22;32137;48.728;9.142;2023-07-29T00:50:18;17.30;99.90
46438;DHT22;32137;48.728;9.142;2023-07-29T00:52:43;17.30;99.90
46438;DHT22;32137;48.728;9.142;2023-07-29T00:55:09;17.30;99.90
46438;DHT22;32137;48.728;9.142;2023-07-29T00:57:34;17.20;99.90
46438;DHT22;32137;48.728;9.142;2023-07-29T01:00:00;17.30;99.90
46438;DHT22;32137;48.728;9.142;2023-07-29T01:02:26;17.30;99.90
46438;DHT22;32137;48.728;9.142;2023-07-29T01:04:53;17.30;99.90
46438;DHT22;32137;48.728;9.142;2023-07-29T01:07:21;17.30;99.90
46438;DHT22;32137;48.728;9.142;2023-07-29T01:12:47;17.30;99.90
46438;DHT22;32137;48.728;9.142;2023-07-29T01:15:16;17.30;99.90
46438;DHT22;32137;48.728;9.142;2023-07-29T01:17:42;17.30;99.90
46438;DHT22;32137;48.728;9.142;2023-07-29T01:20:09;17.30;99.90
46438;DHT22;32137;48.728;9.142;2023-07-29T01:22:36;17.20;99.90
46438;DHT22;32137;48.728;9.142;2023-07-29T01:25:03;17.20;99.90
46438;DHT22;32137;48.728;9.142;2023-07-29T01:27:29;17.20;99.90
46438;DHT22;32137;48.728;9.142;2023-07-29T01:29:54;17.20;99.90
46438;DHT22;32137;48.728;9.142;2023-07-29T01:32:25;17.20;99.90
46438;DHT22;32137;48.728;9.142;2023-07-29T01:37:37;17.20;99.90
46438;DHT22;32137;48.728;9.142;2023-07-29T01:40:03;17.20;99.90
46438;DHT22;32137;48.728;9.142;2023-07-29T01:42:31;17.20;99.90
46438;DHT22;32137;48.728;9.142;2023-07-29T01:44:57;17.20;99.90
46438;DHT22;32137;48.728;9.142;2023-07-29T01:47:22;17.20;99.90
46438;DHT22;32137;48.728;9.142;2023-07-29T01:49:48;17.20;99.90
46438;DHT22;32137;48.728;9.142;2023-07-29T01:52:13;17.20;99.90
46438;DHT22;32137;48.728;9.142;2023-07-29T01:54:39;17.20;99.90
46438;DHT22;32137;48.728;9.142;2023-07-29T01:57:04;17.20;99.90
46438;DHT22;32137;48.728;9.142;2023-07-29T01:59:30;17.20;99.90
46438;DHT22;32137;48.728;9.142;2023-07-29T02:01:55;17.20;99.90
46438;DHT22;32137;48.728;9.142;2023-07-29T02:04:20;17.20;99.90
46438;DHT22;32137;48.728;9.142;2023-07-29T02:06:46;17.20;99.90
46438;DHT22;32137;48.728;9.142;2023-07-29T02:09:11;17.10;99.90
46438;DHT22;32137;48.728;9.142;2023-07-29T02:11:37;17.10;99.90
46438;DHT22;32137;48.728;9.142;2023-07-29T02:14:02;17.10;99.90
46438;DHT22;32137;48.728;9.142;2023-07-29T02:16:28;17.10;99.90
46438;DHT22;32137;48.728;9.142;2023-07-29T02:18:54;17.10;99.90
46438;DHT22;32137;48.728;9.142;2023-07-29T02:21:19;17.00;99.90
46438;DHT22;32137;48.728;9.142;2023-07-29T02:23:45;17.00;99.90
46438;DHT22;32137;48.728;9.142;2023-07-29T02:26:11;17.00;99.90
46438;DHT22;32137;48.728;9.142;2023-07-29T02:28:36;17.00;99.90
46438;DHT22;32137;48.728;9.142;2023-07-29T02:31:15;17.00;94.10
46438;DHT22;32137;48.728;9.142;2023-07-29T02:33:41;17.00;93.10
46438;DHT22;32137;48.728;9.142;2023-07-29T02:36:07;17.00;97.40
46438;DHT22;32137;48.728;9.142;2023-07-29T02:38:32;17.10;97.70
46438;DHT22;32137;48.728;9.142;2023-07-29T02:40:57;17.10;93.70
46438;DHT22;32137;48.728;9.142;2023-07-29T02:43:23;17.10;98.10
46438;DHT22;32137;48.728;9.142;2023-07-29T02:45:48;17.10;80.80
46438;DHT22;32137;48.728;9.142;2023-07-29T02:48:14;17.10;83.10
46438;DHT22;32137;48.728;9.142;2023-07-29T02:50:39;17.10;99.90
46438;DHT22;32137;48.728;9.142;2023-07-29T02:53:05;17.10;97.80
46438;DHT22;32137;48.728;9.142;2023-07-29T02:55:30;17.10;99.90
46438;DHT22;32137;48.728;9.142;2023-07-29T02:57:55;17.10;96.60
46438;DHT22;32137;48.728;9.142;2023-07-29T03:00:21;17.10;91.60
46438;DHT22;32137;48.728;9.142;2023-07-29T03:02:46;17.10;99.00
46438;DHT22;32137;48.728;9.142;2023-07-29T03:05:12;17.10;98.60
46438;DHT22;32137;48.728;9.142;2023-07-29T03:07:38;17.10;95.60
46438;DHT22;32137;48.728;9.142;2023-07-29T03:10:03;17.10;97.40
46438;DHT22;32137;48.728;9.142;2023-07-29T03:12:29;17.10;95.80
46438;DHT22;32137;48.728;9.142;2023-07-29T03:14:54;17.00;93.40
46438;DHT22;32137;48.728;9.142;2023-07-29T03:17:21;17.00;98.50
46438;DHT22;32137;48.728;9.142;2023-07-29T03:19:46;17.00;82.70
46438;DHT22;32137;48.728;9.142;2023-07-29T03:22:12;17.00;86.90
46438;DHT22;32137;48.728;9.142;2023-07-29T03:24:37;17.00;91.00
46438;DHT22;32137;48.728;9.142;2023-07-29T03:27:03;17.00;74.30
46438;DHT22;32137;48.728;9.142;2023-07-29T03:29:28;17.00;90.90
46438;DHT22;32137;48.728;9.142;2023-07-29T03:31:54;17.00;95.30
46438;DHT22;32137;48.728;9.142;2023-07-29T03:34:20;17.00;81.40
46438;DHT22;32137;48.728;9.142;2023-07-29T03:36:45;17.00;75.50
46438;DHT22;32137;48.728;9.142;2023-07-29T03:39:13;17.00;90.40
46438;DHT22;32137;48.728;9.142;2023-07-29T03:41:44;17.00;85.30
46438;DHT22;32137;48.728;9.142;2023-07-29T03:44:19;17.10;66.60
46438;DHT22;32137;48.728;9.142;2023-07-29T03:46:44;17.00;53.70
46438;DHT22;32137;48.728;9.142;2023-07-29T03:49:10;17.00;49.40
46438;DHT22;32137;48.728;9.142;2023-07-29T03:51:36;17.00;42.10
46438;DHT22;32137;48.728;9.142;2023-07-29T03:54:01;17.00;58.10
46438;DHT22;32137;48.728;9.142;2023-07-29T03:56:26;17.00;55.10
46438;DHT22;32137;48.728;9.142;2023-07-29T03:58:52;17.00;42.80
46438;DHT22;32137;48.728;9.142;2023-07-29T04:01:18;17.00;38.20
46438;DHT22;32137;48.728;9.142;2023-07-29T04:03:44;17.00;64.80
46438;DHT22;32137;48.728;9.142;2023-07-29T04:06:10;17.00;99.90
46438;DHT22;32137;48.728;9.142;2023-07-29T04:08:35;17.00;99.90
46438;DHT22;32137;48.728;9.142;2023-07-29T04:11:01;17.00;99.90
46438;DHT22;32137;48.728;9.142;2023-07-29T04:13:26;17.00;99.90
46438;DHT22;32137;48.728;9.142;2023-07-29T04:15:52;17.00;99.90
46438;DHT22;32137;48.728;9.142;2023-07-29T04:18:17;17.00;99.90
46438;DHT22;32137;48.728;9.142;2023-07-29T04:20:42;16.90;99.90
46438;DHT22;32137;48.728;9.142;2023-07-29T04:23:08;16.90;99.90
46438;DHT22;32137;48.728;9.142;2023-07-29T04:25:34;16.90;99.90
46438;DHT22;32137;48.728;9.142;2023-07-29T04:27:59;16.90;99.90
46438;DHT22;32137;48.728;9.142;2023-07-29T04:30:25;16.90;66.70
46438;DHT22;32137;48.728;9.142;2023-07-29T04:32:50;16.90;53.00
46438;DHT22;32137;48.728;9.142;2023-07-29T04:35:16;16.80;42.40
46438;DHT22;32137;48.728;9.142;2023-07-29T04:37:41;16.90;42.80
46438;DHT22;32137;48.728;9.142;2023-07-29T04:40:07;16.80;99.90
46438;DHT22;32137;48.728;9.142;2023-07-29T04:42:32;16.80;99.90
46438;DHT22;32137;48.728;9.142;2023-07-29T04:44:58;16.80;99.90
46438;DHT22;32137;48.728;9.142;2023-07-29T04:47:23;16.90;99.90
46438;DHT22;32137;48.728;9.142;2023-07-29T04:49:49;16.80;99.90
46438;DHT22;32137;48.728;9.142;2023-07-29T04:52:14;16.80;99.90
46438;DHT22;32137;48.728;9.142;2023-07-29T04:54:40;16.90;99.90
46438;DHT22;32137;48.728;9.142;2023-07-29T04:57:06;17.20;99.90
46438;DHT22;32137;48.728;9.142;2023-07-29T04:59:31;17.30;99.90
46438;DHT22;32137;48.728;9.142;2023-07-29T05:01:57;16.70;99.90
46438;DHT22;32137;48.728;9.142;2023-07-29T05:04:22;17.40;99.90
46438;DHT22;32137;48.728;9.142;2023-07-29T05:06:48;17.40;99.90
46438;DHT22;32137;48.728;9.142;2023-07-29T05:09:17;17.50;99.90
46438;DHT22;32137;48.728;9.142;2023-07-29T05:11:43;17.40;99.90
46438;DHT22;32137;48.728;9.142;2023-07-29T05:14:17;17.00;99.90
46438;DHT22;32137;48.728;9.142;2023-07-29T05:16:42;17.10;99.90
46438;DHT22;32137;48.728;9.142;2023-07-29T05:19:08;17.80;99.90
46438;DHT22;32137;48.728;9.142;2023-07-29T05:21:33;17.50;99.90
46438;DHT22;32137;48.728;9.142;2023-07-29T05:23:59;17.40;99.90
46438;DHT22;32137;48.728;9.142;2023-07-29T05:26:24;17.70;99.90
46438;DHT22;32137;48.728;9.142;2023-07-29T05:28:50;17.20;99.90
46438;DHT22;32137;48.728;9.142;2023-07-29T05:31:15;17.30;99.90
46438;DHT22;32137;48.728;9.142;2023-07-29T05:33:41;17.80;99.90
46438;DHT22;32137;48.728;9.142;2023-07-29T05:36:06;17.30;99.90
46438;DHT22;32137;48.728;9.142;2023-07-29T05:38:32;17.80;99.90
46438;DHT22;32137;48.728;9.142;2023-07-29T05:40:57;17.90;99.90
46438;DHT22;32137;48.728;9.142;2023-07-29T05:43:26;17.60;99.90
46438;DHT22;32137;48.728;9.142;2023-07-29T05:45:52;17.90;99.90
46438;DHT22;32137;48.728;9.142;2023-07-29T05:48:18;17.80;99.90
46438;DHT22;32137;48.728;9.142;2023-07-29T05:50:43;18.00;99.90
46438;DHT22;32137;48.728;9.142;2023-07-29T05:53:08;17.40;99.90
46438;DHT22;32137;48.728;9.142;2023-07-29T05:55:34;17.40;99.90
46438;DHT22;32137;48.728;9.142;2023-07-29T05:57:59;17.70;99.90
46438;DHT22;32137;48.728;9.142;2023-07-29T06:00:25;17.80;99.90
46438;DHT22;32137;48.728;9.142;2023-07-29T06:02:50;17.50;99.90
46438;DHT22;32137;48.728;9.142;2023-07-29T06:05:16;18.10;99.90
46438;DHT22;32137;48.728;9.142;2023-07-29T06:07:42;17.80;99.90
46438;DHT22;32137;48.728;9.142;2023-07-29T06:10:13;17.60;99.90
46438;DHT22;32137;48.728;9.142;2023-07-29T06:12:39;18.10;99.90
46438;DHT22;32137;48.728;9.142;2023-07-29T06:15:05;17.60;99.90
46438;DHT22;32137;48.728;9.142;2023-07-29T06:17:30;18.00;99.90
46438;DHT22;32137;48.728;9.142;2023-07-29T06:19:56;17.80;99.90
46438;DHT22;32137;48.728;9.142;2023-07-29T06:22:21;18.30;99.90
46438;DHT22;32137;48.728;9.142;2023-07-29T06:24:47;18.50;99.90
46438;DHT22;32137;48.728;9.142;2023-07-29T06:27:12;18.00;99.90
46438;DHT22;32137;48.728;9.142;2023-07-29T06:29:38;18.10;99.90
46438;DHT22;32137;48.728;9.142;2023-07-29T06:32:03;18.60;99.90
46438;DHT22;32137;48.728;9.142;2023-07-29T06:34:29;18.60;99.90
46438;DHT22;32137;48.728;9.142;2023-07-29T06:36:54;18.10;99.90
46438;DHT22;32137;48.728;9.142;2023-07-29T06:39:20;18.30;99.90
46438;DHT22;32137;48.728;9.142;2023-07-29T06:41:45;18.00;99.90
46438;DHT22;32137;48.728;9.142;2023-07-29T06:44:11;18.00;99.90
46438;DHT22;32137;48.728;9.142;2023-07-29T06:46:36;17.90;99.90
46438;DHT22;32137;48.728;9.142;2023-07-29T06:49:02;18.40;99.90
46438;DHT22;32137;48.728;9.142;2023-07-29T06:51:27;18.40;99.90
46438;DHT22;32137;48.728;9.142;2023-07-29T06:53:57;18.00;99.90
46438;DHT22;32137;48.728;9.142;2023-07-29T06:56:23;17.80;99.90
46438;DHT22;32137;48.728;9.142;2023-07-29T06:58:48;17.90;99.90
46438;DHT22;32137;48.728;9.142;2023-07-29T07:01:14;18.30;99.90
46438;DHT22;32137;48.728;9.142;2023-07-29T07:03:39;18.00;99.90
46438;DHT22;32137;48.728;9.142;2023-07-29T07:06:05;18.20;99.90
46438;DHT22;32137;48.728;9.142;2023-07-29T07:08:31;18.20;99.90
46438;DHT22;32137;48.728;9.142;2023-07-29T07:10:56;18.30;99.90
46438;DHT22;32137;48.728;9.142;2023-07-29T07:13:22;18.10;99.90
46438;DHT22;32137;48.728;9.142;2023-07-29T07:15:47;17.90;99.90
46438;DHT22;32137;48.728;9.142;2023-07-29T07:18:13;17.90;99.90
46438;DHT22;32137;48.728;9.142;2023-07-29T07:20:38;18.50;99.90
46438;DHT22;32137;48.728;9.142;2023-07-29T07:23:04;18.40;99.90
46438;DHT22;32137;48.728;9.142;2023-07-29T07:25:31;18.00;99.90
46438;DHT22;32137;48.728;9.142;2023-07-29T07:27:56;18.00;99.90
46438;DHT22;32137;48.728;9.142;2023-07-29T07:30:21;18.50;99.90
46438;DHT22;32137;48.728;9.142;2023-07-29T07:32:47;18.10;99.90
46438;DHT22;32137;48.728;9.142;2023-07-29T07:35:12;18.00;99.90
46438;DHT22;32137;48.728;9.142;2023-07-29T07:37:38;18.70;99.90
46438;DHT22;32137;48.728;9.142;2023-07-29T07:40:03;18.70;99.90
46438;DHT22;32137;48.728;9.142;2023-07-29T07:42:29;18.50;99.90
46438;DHT22;32137;48.728;9.142;2023-07-29T07:44:54;18.70;99.90
46438;DHT22;32137;48.728;9.142;2023-07-29T07:47:20;18.10;99.90
46438;DHT22;32137;48.728;9.142;2023-07-29T07:49:45;18.20;99.90
46438;DHT22;32137;48.728;9.142;2023-07-29T07:52:11;18.30;99.90
46438;DHT22;32137;48.728;9.142;2023-07-29T07:54:36;18.30;99.90
46438;DHT22;32137;48.728;9.142;2023-07-29T07:57:02;18.50;99.90
46438;DHT22;32137;48.728;9.142;2023-07-29T07:59:27;18.40;99.90
46438;DHT22;32137;48.728;9.142;2023-07-29T08:01:53;18.70;99.90
46438;DHT22;32137;48.728;9.142;2023-07-29T08:04:18;18.40;99.90
46438;DHT22;32137;48.728;9.142;2023-07-29T08:06:44;19.00;99.90
46438;DHT22;32137;48.728;9.142;2023-07-29T08:09:09;19.10;99.90
46438;DHT22;32137;48.728;9.142;2023-07-29T08:11:34;18.50;99.90
46438;DHT22;32137;48.728;9.142;2023-07-29T08:14:00;19.20;99.90
46438;DHT22;32137;48.728;9.142;2023-07-29T08:16:25;18.90;99.90
46438;DHT22;32137;48.728;9.142;2023-07-29T08:18:51;19.30;99.90
46438;DHT22;32137;48.728;9.142;2023-07-29T08:21:16;18.90;99.90
46438;DHT22;32137;48.728;9.142;2023-07-29T08:23:42;18.80;99.90
46438;DHT22;32137;48.728;9.142;2023-07-29T08:26:07;19.50;99.90
46438;DHT22;32137;48.728;9.142;2023-07-29T08:28:36;18.80;99.90
46438;DHT22;32137;48.728;9.142;2023-07-29T08:31:01;19.30;99.90
46438;DHT22;32137;48.728;9.142;2023-07-29T08:33:27;19.40;99.90
46438;DHT22;32137;48.728;9.142;2023-07-29T08:35:53;18.80;99.90
46438;DHT22;32137;48.728;9.142;2023-07-29T08:38:19;19.50;99.90
46438;DHT22;32137;48.728;9.142;2023-07-29T08:40:45;18.90;99.90
46438;DHT22;32137;48.728;9.142;2023-07-29T08:43:11;19.50;99.90
46438;DHT22;32137;48.728;9.142;2023-07-29T08:45:37;19.10;99.90
46438;DHT22;32137;48.728;9.142;2023-07-29T08:48:05;19.30;99.90
46438;DHT22;32137;48.728;9.142;2023-07-29T08:50:32;18.90;99.90
46438;DHT22;32137;48.728;9.142;2023-07-29T08:52:58;19.20;99.90
46438;DHT22;32137;48.728;9.142;2023-07-29T08:55:24;19.00;99.90
46438;DHT22;32137;48.728;9.142;2023-07-29T08:57:50;18.90;99.90
46438;DHT22;32137;48.728;9.142;2023-07-29T09:00:16;19.00;99.90
46438;DHT22;32137;48.728;9.142;2023-07-29T09:02:42;19.80;99.90
46438;DHT22;32137;48.728;9.142;2023-07-29T09:05:07;19.70;99.90
46438;DHT22;32137;48.728;9.142;2023-07-29T09:07:33;19.30;99.90
46438;DHT22;32137;48.728;9.142;2023-07-29T09:09:59;20.10;99.90
46438;DHT22;32137;48.728;9.142;2023-07-29T09:12:24;20.10;99.90
46438;DHT22;32137;48.728;9.142;2023-07-29T09:14:53;20.10;99.90
46438;DHT22;32137;48.728;9.142;2023-07-29T09:17:19;20.30;99.90
46438;DHT22;32137;48.728;9.142;2023-07-29T09:19:47;20.00;99.90
46438;DHT22;32137;48.728;9.142;2023-07-29T09:22:19;19.50;99.90
46438;DHT22;32137;48.728;9.142;2023-07-29T09:24:45;20.10;99.90
46438;DHT22;32137;48.728;9.142;2023-07-29T09:27:27;19.70;99.90
46438;DHT22;32137;48.728;9.142;2023-07-29T09:29:53;19.50;99.90
46438;DHT22;32137;48.728;9.142;2023-07-29T09:32:19;19.60;99.90
46438;DHT22;32137;48.728;9.142;2023-07-29T09:34:45;19.60;99.90
46438;DHT22;32137;48.728;9.142;2023-07-29T09:37:15;20.40;99.90
46438;DHT22;32137;48.728;9.142;2023-07-29T09:39:43;20.30;99.90
46438;DHT22;32137;48.728;9.142;2023-07-29T09:42:11;20.00;99.90
46438;DHT22;32137;48.728;9.142;2023-07-29T09:44:36;20.30;99.90
46438;DHT22;32137;48.728;9.142;2023-07-29T09:47:02;20.50;99.90
46438;DHT22;32137;48.728;9.142;2023-07-29T09:49:27;19.90;99.90
46438;DHT22;32137;48.728;9.142;2023-07-29T09:51:55;20.70;99.90
46438;DHT22;32137;48.728;9.142;2023-07-29T09:54:20;19.90;99.90
46438;DHT22;32137;48.728;9.142;2023-07-29T09:56:46;19.90;99.90
46438;DHT22;32137;48.728;9.142;2023-07-29T09:59:12;20.10;99.90
46438;DHT22;32137;48.728;9.142;2023-07-29T10:01:38;19.90;99.90
46438;DHT22;32137;48.728;9.142;2023-07-29T10:04:04;20.50;99.90
46438;DHT22;32137;48.728;9.142;2023-07-29T10:06:30;20.00;99.90
46438;DHT22;32137;48.728;9.142;2023-07-29T10:08:56;20.30;99.90
46438;DHT22;32137;48.728;9.142;2023-07-29T10:11:22;20.70;99.90
46438;DHT22;32137;48.728;9.142;2023-07-29T10:13:47;20.00;99.90
46438;DHT22;32137;48.728;9.142;2023-07-29T10:16:13;20.80;99.90
46438;DHT22;32137;48.728;9.142;2023-07-29T10:18:38;20.00;99.90
46438;DHT22;32137;48.728;9.142;2023-07-29T10:21:05;20.50;99.90
46438;DHT22;32137;48.728;9.142;2023-07-29T10:23:32;20.50;99.90
46438;DHT22;32137;48.728;9.142;2023-07-29T10:26:03;20.50;99.90
46438;DHT22;32137;48.728;9.142;2023-07-29T10:28:30;20.00;99.90
46438;DHT22;32137;48.728;9.142;2023-07-29T10:30:56;20.60;99.90
46438;DHT22;32137;48.728;9.142;2023-07-29T10:33:21;20.20;99.90
46438;DHT22;32137;48.728;9.142;2023-07-29T10:35:47;19.50;99.90
46438;DHT22;32137;48.728;9.142;2023-07-29T10:38:13;19.30;99.90
46438;DHT22;32137;48.728;9.142;2023-07-29T10:40:50;19.70;99.90
46438;DHT22;32137;48.728;9.142;2023-07-29T10:43:23;20.80;99.90
46438;DHT22;32137;48.728;9.142;2023-07-29T10:45:49;20.60;99.90
46438;DHT22;32137;48.728;9.142;2023-07-29T10:48:57;21.00;99.90
46438;DHT22;32137;48.728;9.142;2023-07-29T10:51:23;20.20;99.90
46438;DHT22;32137;48.728;9.142;2023-07-29T10:53:55;20.50;99.90
46438;DHT22;32137;48.728;9.142;2023-07-29T10:56:27;20.10;99.90
46438;DHT22;32137;48.728;9.142;2023-07-29T10:58:55;21.20;99.90
46438;DHT22;32137;48.728;9.142;2023-07-29T11:01:39;20.30;99.90
46438;DHT22;32137;48.728;9.142;2023-07-29T11:07:19;20.00;99.90
46438;DHT22;32137;48.728;9.142;2023-07-29T11:12:51;20.60;99.90
46438;DHT22;32137;48.728;9.142;2023-07-29T11:17:36;21.20;99.90
46438;DHT22;32137;48.728;9.142;2023-07-29T11:20:02;21.10;99.90
46438;DHT22;32137;48.728;9.142;2023-07-29T11:22:28;21.20;99.90
46438;DHT22;32137;48.728;9.142;2023-07-29T11:24:54;21.10;99.90
46438;DHT22;32137;48.728;9.142;2023-07-29T11:27:20;21.00;99.90
46438;DHT22;32137;48.728;9.142;2023-07-29T11:29:46;21.40;99.90
46438;DHT22;32137;48.728;9.142;2023-07-29T11:32:11;20.90;99.90
46438;DHT22;32137;48.728;9.142;2023-07-29T11:34:37;21.80;99.90
46438;DHT22;32137;48.728;9.142;2023-07-29T11:37:03;21.90;99.90
46438;DHT22;32137;48.728;9.142;2023-07-29T11:39:28;21.40;99.90
46438;DHT22;32137;48.728;9.142;2023-07-29T11:41:54;21.00;99.90
46438;DHT22;32137;48.728;9.142;2023-07-29T11:44:19;21.20;99.90
46438;DHT22;32137;48.728;9.142;2023-07-29T11:46:44;21.10;99.90
46438;DHT22;32137;48.728;9.142;2023-07-29T11:49:10;21.30;99.90
46438;DHT22;32137;48.728;9.142;2023-07-29T11:51:36;24.30;99.90
46438;DHT22;32137;48.728;9.142;2023-07-29T11:54:01;23.00;99.90
46438;DHT22;32137;48.728;9.142;2023-07-29T11:56:27;24.30;99.90
46438;DHT22;32137;48.728;9.142;2023-07-29T11:58:54;23.90;99.90
46438;DHT22;32137;48.728;9.142;2023-07-29T12:01:20;24.70;99.90
46438;DHT22;32137;48.728;9.142;2023-07-29T12:03:46;24.70;99.90
46438;DHT22;32137;48.728;9.142;2023-07-29T12:06:11;26.20;99.90
46438;DHT22;32137;48.728;9.142;2023-07-29T12:08:37;26.20;99.90
46438;DHT22;32137;48.728;9.142;2023-07-29T12:11:03;26.70;99.90
46438;DHT22;32137;48.728;9.142;2023-07-29T12:13:29;26.50;1.00
46438;DHT22;32137;48.728;9.142;2023-07-29T12:16:00;25.60;88.00
46438;DHT22;32137;48.728;9.142;2023-07-29T12:18:32;26.90;1.00
46438;DHT22;32137;48.728;9.142;2023-07-29T12:20:58;26.10;99.90
46438;DHT22;32137;48.728;9.142;2023-07-29T12:23:24;26.40;99.90
46438;DHT22;32137;48.728;9.142;2023-07-29T12:25:50;27.60;1.00
46438;DHT22;32137;48.728;9.142;2023-07-29T12:28:16;29.00;99.90
46438;DHT22;32137;48.728;9.142;2023-07-29T12:30:42;28.30;1.00
46438;DHT22;32137;48.728;9.142;2023-07-29T12:33:08;27.70;1.00
46438;DHT22;32137;48.728;9.142;2023-07-29T12:35:37;27.20;28.50
46438;DHT22;32137;48.728;9.142;2023-07-29T12:38:02;27.00;63.80
46438;DHT22;32137;48.728;9.142;2023-07-29T12:40:28;26.60;99.90
46438;DHT22;32137;48.728;9.142;2023-07-29T12:42:54;26.30;1.00
46438;DHT22;32137;48.728;9.142;2023-07-29T12:45:19;26.20;99.90
46438;DHT22;32137;48.728;9.142;2023-07-29T12:47:48;26.40;99.90
46438;DHT22;32137;48.728;9.142;2023-07-29T12:50:13;27.00;94.50
46438;DHT22;32137;48.728;9.142;2023-07-29T12:52:39;27.10;28.60
46438;DHT22;32137;48.728;9.142;2023-07-29T12:55:05;27.30;99.90
46438;DHT22;32137;48.728;9.142;2023-07-29T12:57:30;27.20;22.20
46438;DHT22;32137;48.728;9.142;2023-07-29T12:59:56;27.30;1.00
46438;DHT22;32137;48.728;9.142;2023-07-29T13:02:21;27.50;1.00
46438;DHT22;32137;48.728;9.142;2023-07-29T13:04:47;27.80;94.80
46438;DHT22;32137;48.728;9.142;2023-07-29T13:07:12;28.70;44.10
46438;DHT22;32137;48.728;9.142;2023-07-29T13:09:38;29.30;1.00
46438;DHT22;32137;48.728;9.142;2023-07-29T13:12:03;29.10;99.90
46438;DHT22;32137;48.728;9.142;2023-07-29T13:14:29;29.30;99.90
46438;DHT22;32137;48.728;9.142;2023-07-29T13:16:54;28.60;99.90
46438;DHT22;32137;48.728;9.142;2023-07-29T13:19:20;28.00;1.00
46438;DHT22;32137;48.728;9.142;2023-07-29T13:21:45;28.00;99.90
46438;DHT22;32137;48.728;9.142;2023-07-29T13:24:10;28.80;99.90
46438;DHT22;32137;48.728;9.142;2023-07-29T13:26:36;28.70;99.90
46438;DHT22;32137;48.728;9.142;2023-07-29T13:29:01;27.80;99.90
46438;DHT22;32137;48.728;9.142;2023-07-29T13:31:27;27.20;1.00
46438;DHT22;32137;48.728;9.142;2023-07-29T13:33:52;26.80;1.00
46438;DHT22;32137;48.728;9.142;2023-07-29T13:36:17;26.40;1.00
46438;DHT22;32137;48.728;9.142;2023-07-29T13:38:43;26.20;99.90
46438;DHT22;32137;48.728;9.142;2023-07-29T13:41:08;25.90;1.00
46438;DHT22;32137;48.728;9.142;2023-07-29T13:43:34;25.70;1.00
46438;DHT22;32137;48.728;9.142;2023-07-29T13:45:59;25.60;1.00
46438;DHT22;32137;48.728;9.142;2023-07-29T13:48:25;25.70;1.00
46438;DHT22;32137;48.728;9.142;2023-07-29T13:50:50;25.60;1.00
46438;DHT22;32137;48.728;9.142;2023-07-29T13:53:16;25.50;1.00
46438;DHT22;32137;48.728;9.142;2023-07-29T13:55:42;25.40;99.90
46438;DHT22;32137;48.728;9.142;2023-07-29T13:58:07;25.30;99.90
46438;DHT22;32137;48.728;9.142;2023-07-29T14:00:33;25.20;1.00
46438;DHT22;32137;48.728;9.142;2023-07-29T14:02:58;25.10;1.00
46438;DHT22;32137;48.728;9.142;2023-07-29T14:05:24;25.20;99.90
46438;DHT22;32137;48.728;9.142;2023-07-29T14:07:49;25.20;1.00
46438;DHT22;32137;48.728;9.142;2023-07-29T14:10:15;25.10;1.00
46438;DHT22;32137;48.728;9.142;2023-07-29T14:12:40;24.90;1.00
46438;DHT22;32137;48.728;9.142;2023-07-29T14:15:06;24.80;70.30
46438;DHT22;32137;48.728;9.142;2023-07-29T14:17:32;24.70;1.00
46438;DHT22;32137;48.728;9.142;2023-07-29T14:19:59;24.70;99.90
46438;DHT22;32137;48.728;9.142;2023-07-29T14:22:24;24.60;1.00
46438;DHT22;32137;48.728;9.142;2023-07-29T14:24:50;24.60;1.00
46438;DHT22;32137;48.728;9.142;2023-07-29T14:27:15;24.70;18.00
46438;DHT22;32137;48.728;9.142;2023-07-29T14:29:42;24.60;1.00
46438;DHT22;32137;48.728;9.142;2023-07-29T14:32:07;24.70;1.00
46438;DHT22;32137;48.728;9.142;2023-07-29T14:34:33;25.00;1.00
46438;DHT22;32137;48.728;9.142;2023-07-29T14:36:58;25.20;1.00
46438;DHT22;32137;48.728;9.142;2023-07-29T14:39:24;25.20;1.00
46438;DHT22;32137;48.728;9.142;2023-07-29T14:41:49;25.40;1.00
46438;DHT22;32137;48.728;9.142;2023-07-29T14:44:14;25.50;99.90
46438;DHT22;32137;48.728;9.142;2023-07-29T14:46:40;25.50;1.00
46438;DHT22;32137;48.728;9.142;2023-07-29T14:49:05;25.50;1.00
46438;DHT22;32137;48.728;9.142;2023-07-29T14:51:31;25.50;1.00
46438;DHT22;32137;48.728;9.142;2023-07-29T14:53:56;25.50;1.00
46438;DHT22;32137;48.728;9.142;2023-07-29T14:56:22;25.50;1.00
46438;DHT22;32137;48.728;9.142;2023-07-29T14:58:47;25.50;1.00
46438;DHT22;32137;48.728;9.142;2023-07-29T15:01:14;25.60;1.00
46438;DHT22;32137;48.728;9.142;2023-07-29T15:03:40;25.60;1.00
46438;DHT22;32137;48.728;9.142;2023-07-29T15:06:05;25.50;99.90
46438;DHT22;32137;48.728;9.142;2023-07-29T15:08:30;25.50;1.00
46438;DHT22;32137;48.728;9.142;2023-07-29T15:10:56;25.40;99.90
46438;DHT22;32137;48.728;9.142;2023-07-29T15:13:21;25.40;1.00
46438;DHT22;32137;48.728;9.142;2023-07-29T15:15:47;25.30;99.90
46438;DHT22;32137;48.728;9.142;2023-07-29T15:18:15;25.30;99.90
46438;DHT22;32137;48.728;9.142;2023-07-29T15:20:40;25.30;99.90
46438;DHT22;32137;48.728;9.142;2023-07-29T15:23:06;25.20;99.90
46438;DHT22;32137;48.728;9.142;2023-07-29T15:25:31;25.20;99.90
46438;DHT22;32137;48.728;9.142;2023-07-29T15:27:57;25.10;99.90
46438;DHT22;32137;48.728;9.142;2023-07-29T15:30:23;25.10;1.00
46438;DHT22;32137;48.728;9.142;2023-07-29T15:32:48;25.00;99.90
46438;DHT22;32137;48.728;9.142;2023-07-29T15:35:14;25.00;1.00
46438;DHT22;32137;48.728;9.142;2023-07-29T15:37:39;25.00;1.00
46438;DHT22;32137;48.728;9.142;2023-07-29T15:40:05;25.20;99.90